sensor_id;sensor_type;location;lat;lon;timestamp;pressure;altitude;pressure_sealevel;temperature;humidity
42587;BME280;28216;53.362;-6.288;2022-10-28T01:30:03;99842.28;;;14.92;100.00
42587;BME280;28216;53.362;-6.288;2022-10-28T02:42:25;99550.00;;;14.81;100.00
42587;BME280;28216;53.362;-6.288;2022-10-28T02:45:18;99543.69;;;14.82;100.00
42587;BME280;28216;53.362;-6.288;2022-10-28T02:51:17;99529.09;;;14.80;100.00
42587;BME280;28216;53.362;-6.288;2022-10-28T03:03:57;99487.44;;;14.88;100.00
42587;BME280;28216;53.362;-6.288;2022-10-28T03:10:01;99434.22;;;14.91;100.00
42587;BME280;28216;53.362;-6.288;2022-10-28T03:19:41;99393.38;;;14.94;100.00
42587;BME280;28216;53.362;-6.288;2022-10-28T03:22:33;99370.44;;;14.94;100.00
42587;BME280;28216;53.362;-6.288;2022-10-28T03:25:17;99363.09;;;14.97;100.00
42587;BME280;28216;53.362;-6.288;2022-10-28T03:27:45;99339.78;;;14.93;100.00
42587;BME280;28216;53.362;-6.288;2022-10-28T03:30:11;99340.59;;;14.94;100.00
42587;BME280;28216;53.362;-6.288;2022-10-28T03:32:40;99340.81;;;14.92;100.00
42587;BME280;28216;53.362;-6.288;2022-10-28T03:35:07;99323.38;;;14.91;100.00
42587;BME280;28216;53.362;-6.288;2022-10-28T03:37:32;99326.25;;;14.90;100.00
42587;BME280;28216;53.362;-6.288;2022-10-28T03:40:03;99314.28;;;14.87;100.00
42587;BME280;28216;53.362;-6.288;2022-10-28T03:42:42;99308.78;;;14.89;100.00
42587;BME280;28216;53.362;-6.288;2022-10-28T03:45:10;99286.88;;;14.88;100.00
42587;BME280;28216;53.362;-6.288;2022-10-28T03:47:41;99288.25;;;14.91;100.00
42587;BME280;28216;53.362;-6.288;2022-10-28T03:50:07;99269.56;;;14.92;100.00
42587;BME280;28216;53.362;-6.288;2022-10-28T03:52:35;99276.47;;;14.93;100.00
42587;BME280;28216;53.362;-6.288;2022-10-28T03:55:03;99277.84;;;14.96;100.00
42587;BME280;28216;53.362;-6.288;2022-10-28T03:57:32;99245.16;;;14.97;100.00
42587;BME280;28216;53.362;-6.288;2022-10-28T03:59:58;99243.31;;;14.98;100.00
42587;BME280;28216;53.362;-6.288;2022-10-28T04:02:23;99235.75;;;15.01;100.00
42587;BME280;28216;53.362;-6.288;2022-10-28T04:04:53;99214.63;;;15.01;100.00
42587;BME280;28216;53.362;-6.288;2022-10-28T04:07:23;99221.28;;;15.04;100.00
42587;BME280;28216;53.362;-6.288;2022-10-28T04:09:58;99216.59;;;15.06;100.00
42587;BME280;28216;53.362;-6.288;2022-10-28T04:12:26;99225.31;;;15.06;100.00
42587;BME280;28216;53.362;-6.288;2022-10-28T04:14:54;99238.28;;;15.08;100.00
42587;BME280;28216;53.362;-6.288;2022-10-28T04:17:19;99217.97;;;15.08;100.00
42587;BME280;28216;53.362;-6.288;2022-10-28T04:19:49;99232.78;;;15.09;100.00
42587;BME280;28216;53.362;-6.288;2022-10-28T04:22:17;99233.81;;;15.08;100.00
42587;BME280;28216;53.362;-6.288;2022-10-28T04:24:42;99216.38;;;15.07;100.00
42587;BME280;28216;53.362;-6.288;2022-10-28T04:27:10;99230.03;;;15.04;100.00
42587;BME280;28216;53.362;-6.288;2022-10-28T04:29:38;99258.47;;;15.02;100.00
42587;BME280;28216;53.362;-6.288;2022-10-28T04:32:07;99282.22;;;15.02;100.00
42587;BME280;28216;53.362;-6.288;2022-10-28T04:34:33;99358.19;;;15.00;100.00
42587;BME280;28216;53.362;-6.288;2022-10-28T04:37:01;99419.03;;;14.87;100.00
42587;BME280;28216;53.362;-6.288;2022-10-28T04:39:26;99453.22;;;14.57;100.00
42587;BME280;28216;53.362;-6.288;2022-10-28T04:41:52;99476.22;;;14.18;100.00
42587;BME280;28216;53.362;-6.288;2022-10-28T04:44:22;99501.09;;;13.91;100.00
42587;BME280;28216;53.362;-6.288;2022-10-28T04:46:47;99541.13;;;13.68;100.00
42587;BME280;28216;53.362;-6.288;2022-10-28T04:49:13;99579.50;;;13.44;100.00
42587;BME280;28216;53.362;-6.288;2022-10-28T04:51:39;99612.50;;;13.20;100.00
42587;BME280;28216;53.362;-6.288;2022-10-28T04:54:04;99626.06;;;12.97;100.00
42587;BME280;28216;53.362;-6.288;2022-10-28T04:56:30;99630.91;;;12.87;100.00
42587;BME280;28216;53.362;-6.288;2022-10-28T04:58:59;99642.44;;;12.73;100.00
42587;BME280;28216;53.362;-6.288;2022-10-28T05:01:25;99644.19;;;12.59;100.00
42587;BME280;28216;53.362;-6.288;2022-10-28T05:03:53;99657.53;;;12.51;100.00
42587;BME280;28216;53.362;-6.288;2022-10-28T05:06:21;99684.22;;;12.48;100.00
42587;BME280;28216;53.362;-6.288;2022-10-28T05:08:51;99696.53;;;12.41;100.00
42587;BME280;28216;53.362;-6.288;2022-10-28T05:11:17;99711.69;;;12.39;100.00
42587;BME280;28216;53.362;-6.288;2022-10-28T05:13:42;99715.72;;;12.35;100.00
42587;BME280;28216;53.362;-6.288;2022-10-28T05:16:18;99733.09;;;12.36;100.00
42587;BME280;28216;53.362;-6.288;2022-10-28T05:18:49;99757.56;;;12.36;100.00
42587;BME280;28216;53.362;-6.288;2022-10-28T05:21:14;99766.03;;;12.32;100.00
42587;BME280;28216;53.362;-6.288;2022-10-28T05:23:40;99782.22;;;12.29;100.00
42587;BME280;28216;53.362;-6.288;2022-10-28T05:26:06;99790.66;;;12.24;100.00
42587;BME280;28216;53.362;-6.288;2022-10-28T05:28:34;99811.88;;;12.23;100.00
42587;BME280;28216;53.362;-6.288;2022-10-28T05:31:04;99823.38;;;12.15;100.00
42587;BME280;28216;53.362;-6.288;2022-10-28T05:33:30;99845.78;;;12.11;100.00
42587;BME280;28216;53.362;-6.288;2022-10-28T05:36:01;99856.22;;;12.04;100.00
42587;BME280;28216;53.362;-6.288;2022-10-28T05:38:29;99855.75;;;11.94;100.00
42587;BME280;28216;53.362;-6.288;2022-10-28T05:40:56;99878.25;;;11.82;100.00
42587;BME280;28216;53.362;-6.288;2022-10-28T05:43:21;99882.97;;;11.72;100.00
42587;BME280;28216;53.362;-6.288;2022-10-28T05:46:03;99870.34;;;11.61;100.00
42587;BME280;28216;53.362;-6.288;2022-10-28T05:48:29;99886.84;;;11.55;100.00
42587;BME280;28216;53.362;-6.288;2022-10-28T05:51:02;99902.16;;;11.51;100.00
42587;BME280;28216;53.362;-6.288;2022-10-28T05:53:29;99908.41;;;11.50;100.00
42587;BME280;28216;53.362;-6.288;2022-10-28T05:55:55;99926.78;;;11.50;100.00
42587;BME280;28216;53.362;-6.288;2022-10-28T05:58:21;99926.97;;;11.49;100.00
42587;BME280;28216;53.362;-6.288;2022-10-28T06:00:48;99951.69;;;11.39;100.00
42587;BME280;28216;53.362;-6.288;2022-10-28T06:03:16;99964.94;;;11.31;100.00
42587;BME280;28216;53.362;-6.288;2022-10-28T06:05:48;99976.16;;;11.25;100.00
42587;BME280;28216;53.362;-6.288;2022-10-28T06:08:26;99986.75;;;11.17;100.00
42587;BME280;28216;53.362;-6.288;2022-10-28T06:10:55;99995.50;;;11.09;100.00
42587;BME280;28216;53.362;-6.288;2022-10-28T06:13:24;100005.38;;;11.07;100.00
42587;BME280;28216;53.362;-6.288;2022-10-28T06:15:54;100013.78;;;11.03;100.00
42587;BME280;28216;53.362;-6.288;2022-10-28T06:18:26;100022.00;;;11.00;100.00
42587;BME280;28216;53.362;-6.288;2022-10-28T06:21:14;100034.66;;;10.96;100.00
42587;BME280;28216;53.362;-6.288;2022-10-28T06:26:23;100052.38;;;10.94;100.00
42587;BME280;28216;53.362;-6.288;2022-10-28T06:28:48;100059.63;;;10.92;100.00
42587;BME280;28216;53.362;-6.288;2022-10-28T06:31:14;100058.44;;;10.95;100.00
42587;BME280;28216;53.362;-6.288;2022-10-28T06:33:39;100058.09;;;10.98;100.00
42587;BME280;28216;53.362;-6.288;2022-10-28T06:36:08;100060.53;;;10.99;100.00
42587;BME280;28216;53.362;-6.288;2022-10-28T06:38:34;100077.25;;;10.98;100.00
42587;BME280;28216;53.362;-6.288;2022-10-28T06:40:59;100086.47;;;10.94;100.00
42587;BME280;28216;53.362;-6.288;2022-10-28T06:43:31;100105.66;;;10.95;100.00
42587;BME280;28216;53.362;-6.288;2022-10-28T06:46:00;100109.72;;;10.97;100.00
42587;BME280;28216;53.362;-6.288;2022-10-28T06:48:32;100112.34;;;10.97;100.00
42587;BME280;28216;53.362;-6.288;2022-10-28T06:51:00;100115.97;;;10.96;100.00
42587;BME280;28216;53.362;-6.288;2022-10-28T06:53:33;100121.03;;;10.98;100.00
42587;BME280;28216;53.362;-6.288;2022-10-28T06:56:25;100131.53;;;10.98;100.00
42587;BME280;28216;53.362;-6.288;2022-10-28T06:58:52;100128.63;;;10.93;100.00
42587;BME280;28216;53.362;-6.288;2022-10-28T07:01:25;100132.06;;;10.93;100.00
42587;BME280;28216;53.362;-6.288;2022-10-28T07:03:51;100142.56;;;10.93;100.00
42587;BME280;28216;53.362;-6.288;2022-10-28T07:06:17;100158.94;;;10.95;100.00
42587;BME280;28216;53.362;-6.288;2022-10-28T07:08:42;100155.97;;;10.98;100.00
42587;BME280;28216;53.362;-6.288;2022-10-28T07:11:08;100165.28;;;11.01;100.00
42587;BME280;28216;53.362;-6.288;2022-10-28T07:13:33;100175.59;;;11.02;100.00
42587;BME280;28216;53.362;-6.288;2022-10-28T07:15:59;100182.47;;;11.03;100.00
42587;BME280;28216;53.362;-6.288;2022-10-28T07:18:27;100203.63;;;11.02;100.00
42587;BME280;28216;53.362;-6.288;2022-10-28T07:20:53;100220.19;;;11.02;100.00
42587;BME280;28216;53.362;-6.288;2022-10-28T07:23:21;100231.69;;;11.01;100.00
42587;BME280;28216;53.362;-6.288;2022-10-28T07:25:51;100241.00;;;11.04;100.00
42587;BME280;28216;53.362;-6.288;2022-10-28T07:28:17;100240.34;;;11.02;100.00
42587;BME280;28216;53.362;-6.288;2022-10-28T07:30:42;100251.66;;;11.02;100.00
42587;BME280;28216;53.362;-6.288;2022-10-28T07:33:08;100258.72;;;11.02;100.00
42587;BME280;28216;53.362;-6.288;2022-10-28T07:35:33;100265.78;;;11.01;100.00
42587;BME280;28216;53.362;-6.288;2022-10-28T07:37:59;100281.88;;;10.98;100.00
42587;BME280;28216;53.362;-6.288;2022-10-28T07:40:24;100290.56;;;10.99;100.00
42587;BME280;28216;53.362;-6.288;2022-10-28T07:42:50;100298.88;;;11.02;100.00
42587;BME280;28216;53.362;-6.288;2022-10-28T07:45:16;100312.66;;;11.04;100.00
42587;BME280;28216;53.362;-6.288;2022-10-28T07:47:42;100312.66;;;11.04;100.00
42587;BME280;28216;53.362;-6.288;2022-10-28T07:50:08;100318.53;;;11.06;100.00
42587;BME280;28216;53.362;-6.288;2022-10-28T07:52:35;100322.97;;;11.06;100.00
42587;BME280;28216;53.362;-6.288;2022-10-28T07:55:01;100329.84;;;11.07;100.00
42587;BME280;28216;53.362;-6.288;2022-10-28T07:57:27;100337.56;;;11.08;100.00
42587;BME280;28216;53.362;-6.288;2022-10-28T07:59:52;100338.19;;;11.10;100.00
42587;BME280;28216;53.362;-6.288;2022-10-28T08:02:21;100349.34;;;11.12;100.00
42587;BME280;28216;53.362;-6.288;2022-10-28T08:04:47;100355.72;;;11.18;100.00
42587;BME280;28216;53.362;-6.288;2022-10-28T08:07:13;100353.09;;;11.18;100.00
42587;BME280;28216;53.362;-6.288;2022-10-28T08:09:39;100354.56;;;11.21;100.00
42587;BME280;28216;53.362;-6.288;2022-10-28T08:12:06;100362.25;;;11.22;100.00
42587;BME280;28216;53.362;-6.288;2022-10-28T08:14:32;100360.28;;;11.24;100.00
42587;BME280;28216;53.362;-6.288;2022-10-28T08:16:57;100360.09;;;11.26;100.00
42587;BME280;28216;53.362;-6.288;2022-10-28T08:19:23;100371.06;;;11.29;100.00
42587;BME280;28216;53.362;-6.288;2022-10-28T08:21:48;100374.81;;;11.35;100.00
42587;BME280;28216;53.362;-6.288;2022-10-28T08:24:14;100383.47;;;11.43;100.00
42587;BME280;28216;53.362;-6.288;2022-10-28T08:26:39;100380.94;;;11.50;100.00
42587;BME280;28216;53.362;-6.288;2022-10-28T08:29:05;100385.34;;;11.58;100.00
42587;BME280;28216;53.362;-6.288;2022-10-28T08:31:32;100387.25;;;11.64;100.00
42587;BME280;28216;53.362;-6.288;2022-10-28T08:33:57;100394.25;;;11.71;100.00
42587;BME280;28216;53.362;-6.288;2022-10-28T08:36:23;100397.66;;;11.80;100.00
42587;BME280;28216;53.362;-6.288;2022-10-28T08:38:48;100404.34;;;11.91;100.00
42587;BME280;28216;53.362;-6.288;2022-10-28T08:46:47;100410.31;;;12.22;100.00
42587;BME280;28216;53.362;-6.288;2022-10-28T08:49:19;100425.00;;;12.31;100.00
42587;BME280;28216;53.362;-6.288;2022-10-28T08:51:52;100419.03;;;12.37;100.00
42587;BME280;28216;53.362;-6.288;2022-10-28T08:54:28;100419.59;;;12.48;100.00
42587;BME280;28216;53.362;-6.288;2022-10-28T08:56:57;100429.22;;;12.55;100.00
42587;BME280;28216;53.362;-6.288;2022-10-28T08:59:31;100426.69;;;12.62;100.00
42587;BME280;28216;53.362;-6.288;2022-10-28T09:02:19;100442.22;;;12.71;100.00
42587;BME280;28216;53.362;-6.288;2022-10-28T09:04:50;100444.78;;;12.80;100.00
42587;BME280;28216;53.362;-6.288;2022-10-28T09:07:20;100437.78;;;12.87;100.00
42587;BME280;28216;53.362;-6.288;2022-10-28T09:09:47;100451.84;;;12.94;100.00
42587;BME280;28216;53.362;-6.288;2022-10-28T09:15:25;100466.00;;;13.08;100.00
42587;BME280;28216;53.362;-6.288;2022-10-28T09:20:24;100471.47;;;13.21;100.00
42587;BME280;28216;53.362;-6.288;2022-10-28T09:22:58;100472.38;;;13.28;100.00
42587;BME280;28216;53.362;-6.288;2022-10-28T09:28:14;100470.91;;;13.40;100.00
42587;BME280;28216;53.362;-6.288;2022-10-28T09:36:28;100472.53;;;13.56;100.00
42587;BME280;28216;53.362;-6.288;2022-10-28T09:38:57;100472.78;;;13.61;100.00
42587;BME280;28216;53.362;-6.288;2022-10-28T09:41:28;100471.22;;;13.66;100.00
42587;BME280;28216;53.362;-6.288;2022-10-28T09:44:12;100481.19;;;13.71;100.00
42587;BME280;28216;53.362;-6.288;2022-10-28T09:46:40;100487.34;;;13.78;100.00
42587;BME280;28216;53.362;-6.288;2022-10-28T09:49:11;100488.44;;;13.84;100.00
42587;BME280;28216;53.362;-6.288;2022-10-28T09:51:54;100492.94;;;13.90;100.00
42587;BME280;28216;53.362;-6.288;2022-10-28T09:54:28;100494.00;;;13.95;100.00
42587;BME280;28216;53.362;-6.288;2022-10-28T09:56:56;100494.09;;;14.02;100.00
42587;BME280;28216;53.362;-6.288;2022-10-28T09:59:21;100499.41;;;14.09;100.00
42587;BME280;28216;53.362;-6.288;2022-10-28T10:01:47;100502.16;;;14.15;100.00
42587;BME280;28216;53.362;-6.288;2022-10-28T10:04:19;100502.00;;;14.23;100.00
42587;BME280;28216;53.362;-6.288;2022-10-28T10:06:47;100514.44;;;14.29;100.00
42587;BME280;28216;53.362;-6.288;2022-10-28T10:09:25;100527.06;;;14.34;100.00
42587;BME280;28216;53.362;-6.288;2022-10-28T10:11:54;100529.75;;;14.41;100.00
42587;BME280;28216;53.362;-6.288;2022-10-28T10:14:27;100533.69;;;14.45;100.00
42587;BME280;28216;53.362;-6.288;2022-10-28T10:17:04;100535.75;;;14.49;100.00
42587;BME280;28216;53.362;-6.288;2022-10-28T10:22:34;100547.59;;;14.60;100.00
42587;BME280;28216;53.362;-6.288;2022-10-28T10:25:00;100543.19;;;14.67;100.00
42587;BME280;28216;53.362;-6.288;2022-10-28T10:27:27;100534.09;;;14.70;100.00
42587;BME280;28216;53.362;-6.288;2022-10-28T10:29:54;100550.34;;;14.73;100.00
42587;BME280;28216;53.362;-6.288;2022-10-28T10:32:26;100551.78;;;14.76;100.00
42587;BME280;28216;53.362;-6.288;2022-10-28T10:34:59;100543.91;;;14.82;100.00
42587;BME280;28216;53.362;-6.288;2022-10-28T10:37:27;100544.19;;;14.87;100.00
42587;BME280;28216;53.362;-6.288;2022-10-28T10:40:03;100544.00;;;14.89;100.00
42587;BME280;28216;53.362;-6.288;2022-10-28T10:42:29;100556.00;;;14.91;100.00
42587;BME280;28216;53.362;-6.288;2022-10-28T10:45:01;100567.81;;;14.96;100.00
42587;BME280;28216;53.362;-6.288;2022-10-28T10:47:27;100566.22;;;15.01;100.00
42587;BME280;28216;53.362;-6.288;2022-10-28T10:50:17;100560.56;;;15.04;100.00
42587;BME280;28216;53.362;-6.288;2022-10-28T10:52:51;100566.88;;;15.10;100.00
42587;BME280;28216;53.362;-6.288;2022-10-28T10:55:23;100565.28;;;15.15;100.00
42587;BME280;28216;53.362;-6.288;2022-10-28T10:57:50;100578.53;;;15.22;100.00
42587;BME280;28216;53.362;-6.288;2022-10-28T11:00:18;100570.63;;;15.22;100.00
42587;BME280;28216;53.362;-6.288;2022-10-28T11:02:46;100586.50;;;15.29;100.00
42587;BME280;28216;53.362;-6.288;2022-10-28T11:05:19;100580.63;;;15.33;100.00
42587;BME280;28216;53.362;-6.288;2022-10-28T11:07:49;100579.66;;;15.41;100.00
42587;BME280;28216;53.362;-6.288;2022-10-28T11:10:29;100597.78;;;15.44;100.00
42587;BME280;28216;53.362;-6.288;2022-10-28T11:12:56;100604.28;;;15.48;100.00
42587;BME280;28216;53.362;-6.288;2022-10-28T11:15:28;100596.78;;;15.51;100.00
42587;BME280;28216;53.362;-6.288;2022-10-28T11:18:30;100599.03;;;15.54;100.00
42587;BME280;28216;53.362;-6.288;2022-10-28T11:21:26;100599.50;;;15.58;100.00
42587;BME280;28216;53.362;-6.288;2022-10-28T11:24:26;100599.31;;;15.60;100.00
42587;BME280;28216;53.362;-6.288;2022-10-28T11:29:31;100604.13;;;15.56;100.00
42587;BME280;28216;53.362;-6.288;2022-10-28T11:32:09;100606.97;;;15.54;100.00
42587;BME280;28216;53.362;-6.288;2022-10-28T11:37:13;100610.88;;;15.58;100.00
42587;BME280;28216;53.362;-6.288;2022-10-28T11:40:12;100612.50;;;15.60;100.00
42587;BME280;28216;53.362;-6.288;2022-10-28T11:59:03;100592.88;;;16.30;100.00
42587;BME280;28216;53.362;-6.288;2022-10-28T12:12:18;100578.06;;;16.48;100.00
42587;BME280;28216;53.362;-6.288;2022-10-28T12:17:59;100577.25;;;16.55;100.00
42587;BME280;28216;53.362;-6.288;2022-10-28T12:20:44;100577.84;;;16.50;100.00
42587;BME280;28216;53.362;-6.288;2022-10-28T12:23:20;100568.47;;;16.41;100.00
42587;BME280;28216;53.362;-6.288;2022-10-28T12:25:50;100572.31;;;16.32;100.00
42587;BME280;28216;53.362;-6.288;2022-10-28T12:31:01;100576.63;;;16.39;100.00
42587;BME280;28216;53.362;-6.288;2022-10-28T12:33:38;100586.41;;;16.52;100.00
42587;BME280;28216;53.362;-6.288;2022-10-28T12:38:37;100585.63;;;16.78;100.00
42587;BME280;28216;53.362;-6.288;2022-10-28T12:41:41;100579.31;;;16.79;100.00
42587;BME280;28216;53.362;-6.288;2022-10-28T12:44:15;100571.56;;;16.84;100.00
42587;BME280;28216;53.362;-6.288;2022-10-28T12:52:13;100578.91;;;16.69;100.00
42587;BME280;28216;53.362;-6.288;2022-10-28T12:55:16;100588.03;;;16.53;99.94
42587;BME280;28216;53.362;-6.288;2022-10-28T12:57:47;100582.53;;;16.48;100.00
42587;BME280;28216;53.362;-6.288;2022-10-28T13:00:22;100579.69;;;16.36;100.00
42587;BME280;28216;53.362;-6.288;2022-10-28T13:05:25;100587.78;;;16.28;100.00
42587;BME280;28216;53.362;-6.288;2022-10-28T13:08:11;100584.09;;;16.29;100.00
42587;BME280;28216;53.362;-6.288;2022-10-28T13:10:47;100581.88;;;16.33;100.00
42587;BME280;28216;53.362;-6.288;2022-10-28T13:24:20;100590.28;;;16.63;100.00
42587;BME280;28216;53.362;-6.288;2022-10-28T13:26:49;100586.00;;;16.62;100.00
42587;BME280;28216;53.362;-6.288;2022-10-28T13:29:30;100579.69;;;16.56;100.00
42587;BME280;28216;53.362;-6.288;2022-10-28T13:31:56;100568.09;;;16.57;100.00
42587;BME280;28216;53.362;-6.288;2022-10-28T13:34:31;100579.91;;;16.55;100.00
42587;BME280;28216;53.362;-6.288;2022-10-28T13:37:14;100574.59;;;16.55;100.00
42587;BME280;28216;53.362;-6.288;2022-10-28T13:39:43;100587.03;;;16.54;100.00
42587;BME280;28216;53.362;-6.288;2022-10-28T13:45:01;100588.84;;;16.53;100.00
42587;BME280;28216;53.362;-6.288;2022-10-28T13:47:31;100574.41;;;16.56;100.00
42587;BME280;28216;53.362;-6.288;2022-10-28T13:55:43;100583.34;;;16.55;100.00
42587;BME280;28216;53.362;-6.288;2022-10-28T13:58:20;100590.69;;;16.53;98.98
42587;BME280;28216;53.362;-6.288;2022-10-28T14:00:49;100580.09;;;16.53;99.60
42587;BME280;28216;53.362;-6.288;2022-10-28T14:03:28;100594.34;;;16.52;99.19
42587;BME280;28216;53.362;-6.288;2022-10-28T14:05:58;100598.44;;;16.55;99.27
42587;BME280;28216;53.362;-6.288;2022-10-28T14:08:39;100603.09;;;16.52;96.31
42587;BME280;28216;53.362;-6.288;2022-10-28T14:11:08;100603.72;;;16.55;98.84
42587;BME280;28216;53.362;-6.288;2022-10-28T14:16:58;100617.97;;;16.60;98.64
42587;BME280;28216;53.362;-6.288;2022-10-28T14:19:24;100620.22;;;16.63;98.72
42587;BME280;28216;53.362;-6.288;2022-10-28T14:22:00;100616.75;;;16.63;98.73
42587;BME280;28216;53.362;-6.288;2022-10-28T14:24:34;100620.41;;;16.62;98.44
42587;BME280;28216;53.362;-6.288;2022-10-28T15:24:25;100648.31;;;15.97;100.00
42587;BME280;28216;53.362;-6.288;2022-10-28T15:26:55;100648.91;;;15.92;100.00
42587;BME280;28216;53.362;-6.288;2022-10-28T15:29:22;100657.22;;;15.89;100.00
42587;BME280;28216;53.362;-6.288;2022-10-28T15:34:31;100661.47;;;15.83;100.00
42587;BME280;28216;53.362;-6.288;2022-10-28T15:36:57;100660.03;;;15.81;100.00
42587;BME280;28216;53.362;-6.288;2022-10-28T15:39:23;100648.22;;;15.77;100.00
42587;BME280;28216;53.362;-6.288;2022-10-28T15:42:29;100655.53;;;15.75;100.00
42587;BME280;28216;53.362;-6.288;2022-10-28T15:44:56;100661.00;;;15.73;100.00
42587;BME280;28216;53.362;-6.288;2022-10-28T15:47:36;100664.47;;;15.74;100.00
42587;BME280;28216;53.362;-6.288;2022-10-28T15:52:43;100658.41;;;15.80;100.00
42587;BME280;28216;53.362;-6.288;2022-10-28T15:59:21;100667.53;;;15.77;100.00
42587;BME280;28216;53.362;-6.288;2022-10-28T16:08:17;100681.88;;;15.62;100.00
42587;BME280;28216;53.362;-6.288;2022-10-28T16:10:53;100671.22;;;15.55;100.00
42587;BME280;28216;53.362;-6.288;2022-10-28T16:15:57;100690.47;;;15.49;100.00
42587;BME280;28216;53.362;-6.288;2022-10-28T16:18:24;100697.34;;;15.43;100.00
42587;BME280;28216;53.362;-6.288;2022-10-28T16:20:52;100689.00;;;15.40;100.00
42587;BME280;28216;53.362;-6.288;2022-10-28T16:23:20;100702.78;;;15.35;100.00
42587;BME280;28216;53.362;-6.288;2022-10-28T16:25:49;100697.88;;;15.32;100.00
42587;BME280;28216;53.362;-6.288;2022-10-28T16:28:25;100709.03;;;15.27;100.00
42587;BME280;28216;53.362;-6.288;2022-10-28T16:30:53;100717.50;;;15.23;100.00
42587;BME280;28216;53.362;-6.288;2022-10-28T16:33:27;100722.38;;;15.19;100.00
42587;BME280;28216;53.362;-6.288;2022-10-28T16:35:54;100711.16;;;15.17;100.00
42587;BME280;28216;53.362;-6.288;2022-10-28T16:38:19;100727.41;;;15.14;100.00
42587;BME280;28216;53.362;-6.288;2022-10-28T16:40:45;100723.31;;;15.12;100.00
42587;BME280;28216;53.362;-6.288;2022-10-28T16:43:15;100719.41;;;15.08;100.00
42587;BME280;28216;53.362;-6.288;2022-10-28T16:45:51;100717.78;;;15.07;100.00
42587;BME280;28216;53.362;-6.288;2022-10-28T16:48:22;100725.25;;;15.03;100.00
42587;BME280;28216;53.362;-6.288;2022-10-28T16:50:56;100730.09;;;15.00;100.00
42587;BME280;28216;53.362;-6.288;2022-10-28T16:53:23;100729.66;;;14.96;100.00
42587;BME280;28216;53.362;-6.288;2022-10-28T16:55:49;100737.16;;;14.92;100.00
42587;BME280;28216;53.362;-6.288;2022-10-28T16:58:15;100731.44;;;14.89;100.00
42587;BME280;28216;53.362;-6.288;2022-10-28T17:00:41;100737.22;;;14.84;100.00
42587;BME280;28216;53.362;-6.288;2022-10-28T17:03:10;100740.88;;;14.83;100.00
42587;BME280;28216;53.362;-6.288;2022-10-28T17:05:37;100750.00;;;14.81;100.00
42587;BME280;28216;53.362;-6.288;2022-10-28T17:08:02;100743.91;;;14.80;100.00
42587;BME280;28216;53.362;-6.288;2022-10-28T17:10:33;100733.72;;;14.77;100.00
42587;BME280;28216;53.362;-6.288;2022-10-28T17:12:59;100741.81;;;14.76;100.00
42587;BME280;28216;53.362;-6.288;2022-10-28T17:15:27;100755.56;;;14.71;100.00
42587;BME280;28216;53.362;-6.288;2022-10-28T17:17:52;100754.31;;;14.67;100.00
42587;BME280;28216;53.362;-6.288;2022-10-28T17:20:19;100755.50;;;14.65;100.00
42587;BME280;28216;53.362;-6.288;2022-10-28T17:22:44;100754.03;;;14.62;100.00
42587;BME280;28216;53.362;-6.288;2022-10-28T17:25:10;100761.50;;;14.58;100.00
42587;BME280;28216;53.362;-6.288;2022-10-28T17:27:36;100748.50;;;14.57;100.00
42587;BME280;28216;53.362;-6.288;2022-10-28T17:30:01;100746.88;;;14.56;100.00
42587;BME280;28216;53.362;-6.288;2022-10-28T17:32:27;100745.44;;;14.53;100.00
42587;BME280;28216;53.362;-6.288;2022-10-28T17:34:52;100755.53;;;14.50;100.00
42587;BME280;28216;53.362;-6.288;2022-10-28T17:37:21;100759.16;;;14.49;100.00
42587;BME280;28216;53.362;-6.288;2022-10-28T17:39:46;100752.63;;;14.45;100.00
42587;BME280;28216;53.362;-6.288;2022-10-28T17:42:12;100747.69;;;14.42;100.00
42587;BME280;28216;53.362;-6.288;2022-10-28T17:44:37;100750.69;;;14.39;100.00
42587;BME280;28216;53.362;-6.288;2022-10-28T17:47:03;100744.59;;;14.38;100.00
42587;BME280;28216;53.362;-6.288;2022-10-28T17:49:32;100762.44;;;14.36;100.00
42587;BME280;28216;53.362;-6.288;2022-10-28T17:52:03;100752.25;;;14.33;100.00
42587;BME280;28216;53.362;-6.288;2022-10-28T17:54:28;100756.06;;;14.30;100.00
42587;BME280;28216;53.362;-6.288;2022-10-28T17:56:54;100761.53;;;14.29;100.00
42587;BME280;28216;53.362;-6.288;2022-10-28T17:59:21;100769.00;;;14.25;100.00
42587;BME280;28216;53.362;-6.288;2022-10-28T18:01:57;100773.44;;;14.25;100.00
42587;BME280;28216;53.362;-6.288;2022-10-28T18:04:23;100773.81;;;14.22;100.00
42587;BME280;28216;53.362;-6.288;2022-10-28T18:06:55;100771.34;;;14.20;100.00
42587;BME280;28216;53.362;-6.288;2022-10-28T18:09:21;100773.19;;;14.20;100.00
42587;BME280;28216;53.362;-6.288;2022-10-28T18:11:49;100784.91;;;14.17;100.00
42587;BME280;28216;53.362;-6.288;2022-10-28T18:14:16;100782.44;;;14.16;100.00
42587;BME280;28216;53.362;-6.288;2022-10-28T18:16:42;100789.91;;;14.12;100.00
42587;BME280;28216;53.362;-6.288;2022-10-28T18:19:10;100795.34;;;14.11;100.00
42587;BME280;28216;53.362;-6.288;2022-10-28T18:21:36;100802.78;;;14.07;100.00
42587;BME280;28216;53.362;-6.288;2022-10-28T18:24:02;100787.16;;;14.06;100.00
42587;BME280;28216;53.362;-6.288;2022-10-28T18:26:29;100795.25;;;14.04;100.00
42587;BME280;28216;53.362;-6.288;2022-10-28T18:28:56;100788.97;;;14.05;100.00
42587;BME280;28216;53.362;-6.288;2022-10-28T18:31:21;100791.78;;;14.04;100.00
42587;BME280;28216;53.362;-6.288;2022-10-28T18:33:48;100791.31;;;14.00;100.00
42587;BME280;28216;53.362;-6.288;2022-10-28T18:36:16;100794.97;;;13.99;100.00
42587;BME280;28216;53.362;-6.288;2022-10-28T18:38:42;100806.50;;;13.98;100.00
42587;BME280;28216;53.362;-6.288;2022-10-28T18:41:19;100816.22;;;13.97;100.00
42587;BME280;28216;53.362;-6.288;2022-10-28T18:43:45;100818.88;;;13.97;100.00